Time;durP1;ratioP1;P1;durP2;ratioP2;P2;SDS_P1;SDS_P2;PMS_P1;PMS_P2;Temp;Humidity;BMP_temperature;BMP_pressure;BME280_temperature;BME280_humidity;BME280_pressure;Samples;Min_cycle;Max_cycle;Signal;HPM_P1;HPM_P2
2022/06/23 00:01:18;;;;;;;2.00;1.90;;;;;;;14.85;100.00;101578.84;5033479;28;20445;-71
2022/06/23 00:03:45;;;;;;;2.23;2.00;;;;;;;14.77;100.00;101589.03;5035117;28;20469;-71
2022/06/23 00:06:37;;;;;;;2.20;1.97;;;;;;;14.73;100.00;101590.50;5035244;28;20448;-72
2022/06/23 00:09:24;;;;;;;1.90;1.80;;;;;;;14.72;100.00;101578.84;5029613;28;20544;-72
2022/06/23 00:11:50;;;;;;;2.00;1.90;;;;;;;14.16;100.00;101498.25;5036985;28;20441;-72
2022/06/23 00:14:15;;;;;;;2.00;1.90;;;;;;;14.59;100.00;101546.44;5035548;28;20458;-71
2022/06/23 00:16:41;;;;;;;2.70;2.07;;;;;;;14.56;100.00;101538.78;5039628;28;20242;-72
2022/06/23 00:19:12;;;;;;;2.40;2.07;;;;;;;14.72;100.00;101573.44;5038536;28;20573;-72
2022/06/23 00:21:39;;;;;;;1.70;1.60;;;;;;;14.65;100.00;101556.41;5036583;28;20209;-71
2022/06/23 00:24:13;;;;;;;2.60;2.40;;;;;;;14.67;100.00;101574.06;5038576;28;20520;-72
2022/06/23 00:26:39;;;;;;;4.50;2.37;;;;;;;14.71;100.00;101571.78;5037390;28;20441;-72
2022/06/23 00:29:10;;;;;;;2.30;2.20;;;;;;;14.63;100.00;101574.69;5039275;28;20478;-72
2022/06/23 00:31:55;;;;;;;2.27;2.17;;;;;;;14.61;100.00;101561.41;5040776;28;20193;-72
2022/06/23 00:34:22;;;;;;;2.33;2.20;;;;;;;14.59;100.00;101557.25;5039009;28;20963;-72
2022/06/23 00:36:53;;;;;;;2.17;2.07;;;;;;;14.58;100.00;101559.13;5041553;28;20419;-72
2022/06/23 00:39:26;;;;;;;2.33;2.23;;;;;;;14.58;100.00;101559.13;5041654;28;20426;-72
2022/06/23 00:41:52;;;;;;;2.50;2.30;;;;;;;14.22;100.00;101503.63;5040199;28;20450;-72
2022/06/23 00:44:43;;;;;;;2.60;2.40;;;;;;;14.45;100.00;101559.91;5040578;28;20884;-72
2022/06/23 00:47:16;;;;;;;2.60;2.40;;;;;;;14.45;100.00;101559.91;5036424;28;20192;-72
2022/06/23 00:49:51;;;;;;;3.00;2.70;;;;;;;14.34;100.00;101535.41;5036976;28;20466;-72
2022/06/23 00:52:27;;;;;;;2.50;2.30;;;;;;;13.98;100.00;101488.88;5038004;28;21537;-72
2022/06/23 00:54:56;;;;;;;3.50;3.17;;;;;;;14.36;100.00;101547.66;5038147;28;20475;-72
2022/06/23 00:57:33;;;;;;;2.77;2.30;;;;;;;14.54;100.00;101574.06;5040660;28;20442;-72
2022/06/23 01:00:20;;;;;;;2.90;2.70;;;;;;;14.49;100.00;101563.00;5037872;28;20821;-72
2022/06/23 01:03:00;;;;;;;2.60;2.40;;;;;;;14.31;100.00;101552.84;5039136;28;20430;-72
2022/06/23 01:05:38;;;;;;;2.57;2.43;;;;;;;14.42;100.00;101559.50;5036817;28;20445;-72
2022/06/23 01:08:13;;;;;;;2.63;2.43;;;;;;;14.42;100.00;101562.19;5037212;28;20430;-72
2022/06/23 01:10:50;;;;;;;2.97;2.70;;;;;;;14.40;100.00;101561.56;5036303;28;20438;-73
2022/06/23 01:13:31;;;;;;;3.57;3.30;;;;;;;14.29;100.00;101563.03;5036509;28;21384;-73
2022/06/23 01:16:37;;;;;;;3.73;3.43;;;;;;;14.24;100.00;101546.59;5037584;28;20441;-73
2022/06/23 01:19:21;;;;;;;3.20;3.00;;;;;;;14.31;100.00;101568.19;5001698;28;20448;-72
2022/06/23 01:21:53;;;;;;;2.73;2.53;;;;;;;14.25;100.00;101570.66;5039257;28;20824;-73
2022/06/23 01:24:30;;;;;;;4.20;3.80;;;;;;;14.19;100.00;101570.66;5036929;28;20480;-73
2022/06/23 01:27:34;;;;;;;3.43;3.13;;;;;;;13.99;100.00;101540.94;5035427;28;20526;-73
2022/06/23 01:30:09;;;;;;;3.90;3.60;;;;;;;14.29;100.00;101568.41;5037177;28;20465;-73
2022/06/23 01:32:45;;;;;;;3.57;3.27;;;;;;;13.87;100.00;101485.97;5039544;28;20999;-72
2022/06/23 01:35:29;;;;;;;3.57;3.30;;;;;;;14.17;100.00;101557.38;5040818;28;20458;-72
2022/06/23 01:38:03;;;;;;;4.40;4.10;;;;;;;13.84;100.00;101506.06;5039597;28;20442;-73
2022/06/23 01:40:35;;;;;;;4.60;4.20;;;;;;;14.12;100.00;101548.25;5042818;28;20430;-72
2022/06/23 01:43:04;;;;;;;4.03;3.73;;;;;;;14.08;100.00;101565.88;5041135;28;20903;-73
2022/06/23 01:45:39;;;;;;;4.40;3.50;;;;;;;13.81;100.00;101519.97;5040326;28;20450;-72
2022/06/23 01:48:51;;;;;;;4.30;3.90;;;;;;;14.17;100.00;101556.53;5038691;28;20450;-73
2022/06/23 01:51:20;;;;;;;3.83;3.53;;;;;;;14.09;100.00;101551.34;5039523;28;20946;-73
2022/06/23 01:53:46;;;;;;;3.83;3.53;;;;;;;14.13;100.00;101549.91;5040915;28;21012;-73
2022/06/23 01:56:49;;;;;;;4.20;3.90;;;;;;;14.13;100.00;101555.31;5039156;28;20449;-73
2022/06/23 01:59:24;;;;;;;4.43;4.03;;;;;;;14.14;100.00;101555.09;5001153;28;20188;-73
2022/06/23 02:02:03;;;;;;;4.27;3.97;;;;;;;14.15;100.00;101551.38;5034673;28;20939;-73
2022/06/23 02:04:53;;;;;;;4.60;4.20;;;;;;;14.00;100.00;101556.09;5040258;28;20465;-73
2022/06/23 02:07:32;;;;;;;3.80;3.50;;;;;;;13.99;100.00;101549.03;5039738;28;20423;-73
2022/06/23 02:10:18;;;;;;;4.60;4.20;;;;;;;13.81;100.00;101527.22;5039512;28;20473;-73
2022/06/23 02:12:56;;;;;;;7.10;4.83;;;;;;;13.84;100.00;101546.53;5041241;28;20977;-73
2022/06/23 02:15:35;;;;;;;4.47;4.07;;;;;;;13.83;100.00;101544.88;5038540;28;20434;-74
2022/06/23 02:18:13;;;;;;;3.70;3.40;;;;;;;13.83;100.00;101539.47;5040098;28;20433;-74
2022/06/23 02:20:46;;;;;;;4.53;4.13;;;;;;;13.93;100.00;101558.78;5040123;28;20469;-74
2022/06/23 02:23:21;;;;;;;5.37;4.97;;;;;;;13.70;100.00;101531.34;5038984;28;20461;-73
2022/06/23 02:25:56;;;;;;;4.80;4.40;;;;;;;13.85;100.00;101553.56;5042378;28;20439;-74
2022/06/23 02:28:31;;;;;;;4.73;4.30;;;;;;;13.84;100.00;101551.91;5043090;28;20469;-74
2022/06/23 02:31:26;;;;;;;4.50;4.10;;;;;;;13.84;100.00;101554.59;5045108;28;20929;-73
2022/06/23 02:34:00;;;;;;;4.13;3.83;;;;;;;13.61;100.00;101514.50;5041654;28;20450;-73
2022/06/23 02:36:56;;;;;;;4.40;4.10;;;;;;;13.76;100.00;101544.81;5042201;28;20426;-72
2022/06/23 02:39:38;;;;;;;5.30;4.80;;;;;;;13.20;100.00;101448.00;5042996;28;20406;-74
2022/06/23 02:42:20;;;;;;;4.70;4.27;;;;;;;13.33;100.00;101475.00;5043228;28;20469;-74
2022/06/23 02:44:54;;;;;;;5.50;5.00;;;;;;;13.73;100.00;101542.53;5041975;28;20512;-75
2022/06/23 02:47:47;;;;;;;5.17;4.67;;;;;;;13.62;100.00;101524.25;5041944;28;20418;-74
2022/06/23 02:50:28;;;;;;;5.30;4.90;;;;;;;13.78;100.00;101536.56;5041388;28;20468;-73
2022/06/23 02:53:13;;;;;;;5.17;4.73;;;;;;;13.44;100.00;101505.13;5042331;28;20852;-73
2022/06/23 02:55:56;;;;;;;5.00;4.60;;;;;;;13.64;100.00;101538.38;5043583;28;20418;-74
2022/06/23 02:58:28;;;;;;;4.47;4.07;;;;;;;13.34;100.00;101509.03;5041724;28;20438;-74
2022/06/23 03:01:12;;;;;;;5.53;5.03;;;;;;;13.09;100.00;101448.56;5042137;28;20981;-73
2022/06/23 03:04:03;;;;;;;4.93;4.30;;;;;;;13.60;100.00;101531.72;5041693;28;21199;-73
2022/06/23 03:06:47;;;;;;;4.53;4.23;;;;;;;13.70;100.00;101534.84;5042047;28;20513;-72
2022/06/23 03:09:22;;;;;;;4.57;4.20;;;;;;;13.67;100.00;101537.97;5042841;28;20488;-73
2022/06/23 03:12:06;;;;;;;4.90;4.50;;;;;;;13.49;100.00;101525.03;5041021;28;20487;-73
2022/06/23 03:14:53;;;;;;;4.70;4.30;;;;;;;13.66;100.00;101544.41;5042299;28;20449;-73
2022/06/23 03:17:37;;;;;;;5.30;4.80;;;;;;;13.66;100.00;101539.00;5043177;28;20423;-72
2022/06/23 03:20:24;;;;;;;4.20;3.90;;;;;;;13.66;100.00;101548.97;5042383;28;20442;-72
2022/06/23 03:23:15;;;;;;;4.77;4.33;;;;;;;13.44;100.00;101518.59;5040982;28;20407;-73
2022/06/23 03:25:53;;;;;;;4.70;4.30;;;;;;;13.51;100.00;101530.22;5036526;28;20459;-73
2022/06/23 03:28:32;;;;;;;4.23;3.83;;;;;;;13.49;100.00;101533.13;5038399;28;20521;-74
2022/06/23 03:31:21;;;;;;;4.60;4.20;;;;;;;13.42;100.00;101536.81;5039526;28;20451;-74
2022/06/23 03:34:02;;;;;;;2.87;2.67;;;;;;;13.47;100.00;101542.44;5039990;28;20869;-74
2022/06/23 03:36:49;;;;;;;3.83;3.50;;;;;;;13.41;100.00;101535.16;5035959;28;20490;-74
2022/06/23 03:42:23;;;;;;;3.30;3.00;;;;;;;13.42;100.00;101523.34;5036926;28;20480;-75
2022/06/23 03:45:27;;;;;;;3.50;3.20;;;;;;;13.43;100.00;101531.25;5038229;28;20462;-74
2022/06/23 03:48:04;;;;;;;4.17;3.77;;;;;;;13.49;100.00;101540.38;5026664;28;20962;-74
2022/06/23 03:50:44;;;;;;;4.63;4.10;;;;;;;13.49;100.00;101526.91;5036578;28;20435;-74
2022/06/23 03:53:27;;;;;;;4.00;3.70;;;;;;;13.54;100.00;101546.84;5036286;28;20457;-74
2022/06/23 03:55:57;;;;;;;3.73;3.43;;;;;;;13.53;100.00;101539.75;5038656;28;20446;-74
2022/06/23 03:58:28;;;;;;;4.40;4.00;;;;;;;13.54;100.00;101543.31;5037139;28;20478;-74
2022/06/23 04:01:22;;;;;;;4.10;3.70;;;;;;;13.57;100.00;101535.66;5038092;28;20842;-74
2022/06/23 04:03:51;;;;;;;4.60;4.20;;;;;;;13.58;100.00;101536.47;5032218;28;20497;-74
2022/06/23 04:06:31;;;;;;;4.67;4.27;;;;;;;13.63;100.00;101534.03;5037044;28;20499;-74
2022/06/23 04:09:05;;;;;;;5.53;4.97;;;;;;;13.25;100.00;101474.31;5035787;28;20466;-74
2022/06/23 04:12:03;;;;;;;4.67;4.27;;;;;;;13.69;100.00;101530.50;5036737;28;20445;-75
2022/06/23 04:14:42;;;;;;;4.57;4.17;;;;;;;13.71;100.00;101539.25;5033674;28;20841;-74
2022/06/23 04:17:18;;;;;;;4.80;4.40;;;;;;;13.76;100.00;101533.22;5035870;28;20460;-74
2022/06/23 04:19:53;;;;;;;6.27;4.57;;;;;;;13.68;100.00;101539.66;5037034;28;20444;-75
2022/06/23 04:22:57;;;;;;;5.37;4.87;;;;;;;13.84;100.00;101551.09;5035286;28;20437;-74
2022/06/23 04:25:44;;;;;;;5.43;4.93;;;;;;;13.71;100.00;101525.75;5035466;28;20450;-74
2022/06/23 04:28:41;;;;;;;5.33;4.73;;;;;;;13.90;100.00;101544.88;5038218;28;20533;-77
2022/06/23 04:31:08;;;;;;;4.57;4.27;;;;;;;13.85;100.00;101540.09;5038510;28;20445;-75
2022/06/23 04:33:40;;;;;;;4.23;3.87;;;;;;;13.69;100.00;101502.72;5037362;28;22347;-74
2022/06/23 04:36:16;;;;;;;4.27;3.87;;;;;;;13.82;100.00;101528.88;4972186;22;20507;-85
2022/06/23 04:39:14;;;;;;;4.73;4.33;;;;;;;13.92;100.00;101542.81;4944081;28;20458;-83
2022/06/23 04:42:12;;;;;;;5.30;4.80;;;;;;;14.01;100.00;101544.28;4940670;28;20419;-83
2022/06/23 04:44:45;;;;;;;5.67;5.07;;;;;;;13.96;100.00;101539.50;4944436;28;20603;-82
2022/06/23 04:47:22;;;;;;;5.37;4.87;;;;;;;14.09;100.00;101537.84;4959756;28;20449;-78
2022/06/23 04:49:53;;;;;;;8.10;5.63;;;;;;;13.73;100.00;101495.88;4956849;28;21012;-78
2022/06/23 04:52:53;;;;;;;5.93;5.40;;;;;;;14.15;100.00;101545.16;4956679;28;20446;-78
2022/06/23 04:55:25;;;;;;;4.23;3.93;;;;;;;13.96;100.00;101506.31;4976028;28;20556;-79
2022/06/23 04:58:10;;;;;;;6.20;5.60;;;;;;;14.03;100.00;101507.16;4958554;28;20477;-78
2022/06/23 05:00:40;;;;;;;5.40;4.90;;;;;;;14.21;100.00;101511.94;4958121;28;20995;-78
2022/06/23 05:03:40;;;;;;;5.90;5.40;;;;;;;14.36;100.00;101541.44;4959109;28;20429;-78
2022/06/23 05:06:21;;;;;;;5.40;4.90;;;;;;;14.41;100.00;101533.56;4957891;28;20487;-78
2022/06/23 05:08:48;;;;;;;10.37;5.30;;;;;;;14.34;100.00;101516.50;4960666;28;20508;-77
2022/06/23 05:11:41;;;;;;;6.60;5.83;;;;;;;14.60;100.00;101535.44;4963206;28;20442;-78
2022/06/23 05:14:25;;;;;;;4.53;4.13;;;;;;;14.47;100.00;101513.81;4961393;28;20889;-77
2022/06/23 05:17:04;;;;;;;5.90;5.30;;;;;;;14.20;100.00;101459.00;4961624;28;20465;-78
2022/06/23 05:19:36;;;;;;;6.20;5.60;;;;;;;14.84;100.00;101533.97;4960323;28;20457;-78
2022/06/23 05:22:12;;;;;;;5.60;5.10;;;;;;;14.74;100.00;101513.81;4960572;28;20425;-78
2022/06/23 05:24:42;;;;;;;7.37;5.40;;;;;;;14.89;100.00;101536.84;4959829;28;20894;-78
2022/06/23 05:27:20;;;;;;;5.93;5.43;;;;;;;14.98;100.00;101545.56;4961349;28;20521;-79
2022/06/23 05:30:11;;;;;;;5.43;4.93;;;;;;;15.14;100.00;101538.88;4961664;28;20470;-78
2022/06/23 05:32:47;;;;;;;5.77;4.83;;;;;;;14.64;100.00;101446.78;4990480;28;20480;-79
2022/06/23 05:35:19;;;;;;;4.50;4.10;;;;;;;15.19;100.00;101528.28;4958932;28;20468;-79
2022/06/23 05:37:54;;;;;;;4.90;4.50;;;;;;;15.20;100.00;101518.28;4975251;28;20472;-79
2022/06/23 05:40:40;;;;;;;5.50;5.10;;;;;;;15.39;100.00;101541.75;4961909;28;20770;-77
2022/06/23 05:43:11;;;;;;;5.20;4.80;;;;;;;15.43;100.00;101544.84;4963778;28;20441;-80
2022/06/23 05:45:44;;;;;;;5.30;4.80;;;;;;;15.45;100.00;101535.47;4961442;28;20450;-79
2022/06/23 05:48:16;;;;;;;5.73;5.23;;;;;;;15.60;100.00;101548.72;4960589;28;20421;-80
2022/06/23 05:51:05;;;;;;;5.27;4.77;;;;;;;15.65;100.00;101542.66;4961377;28;20449;-82
2022/06/23 05:53:36;;;;;;;5.10;4.50;;;;;;;15.58;100.00;101540.81;4961296;28;20427;-84
2022/06/23 05:56:04;;;;;;;5.57;5.07;;;;;;;15.48;100.00;101512.59;4961629;28;20441;-84
2022/06/23 05:58:46;;;;;;;4.90;4.50;;;;;;;15.80;100.00;101559.47;4962495;28;20518;-82
2022/06/23 06:01:36;;;;;;;6.30;5.10;;;;;;;15.81;100.00;101559.25;4961993;28;20458;-82
2022/06/23 06:04:26;;;;;;;6.27;5.73;;;;;;;15.79;100.00;101531.59;4960055;28;20422;-83
2022/06/23 06:06:52;;;;;;;5.50;4.60;;;;;;;15.98;100.00;101550.63;4961965;28;20426;-83
2022/06/23 06:09:36;;;;;;;5.53;4.77;;;;;;;16.08;100.00;101555.56;4960106;28;20478;-83
2022/06/23 06:12:17;;;;;;;5.43;4.97;;;;;;;16.09;100.00;101533.69;4959742;28;20214;-84
2022/06/23 06:14:47;;;;;;;4.77;4.30;;;;;;;16.23;100.00;101537.16;4959260;28;20446;-83
2022/06/23 06:17:19;;;;;;;5.20;4.70;;;;;;;16.32;100.00;101535.00;4960761;28;20422;-83
2022/06/23 06:19:47;;;;;;;5.67;4.50;;;;;;;15.70;100.00;101423.88;4960668;28;20472;-82
2022/06/23 06:22:37;;;;;;;5.47;4.97;;;;;;;16.46;100.00;101528.41;5043338;28;20492;-82
2022/06/23 06:25:05;;;;;;;6.00;5.40;;;;;;;16.26;100.00;101488.81;4959920;28;20537;-80
2022/06/23 06:27:31;;;;;;;4.57;4.17;;;;;;;16.28;100.00;101494.81;4959768;28;20438;-79
2022/06/23 06:29:57;;;;;;;5.63;4.17;;;;;;;16.55;100.00;101531.66;4960212;28;20834;-79
2022/06/23 06:32:33;;;;;;;4.47;4.07;;;;;;;16.55;100.00;101537.94;4959505;28;20190;-79
2022/06/23 06:35:02;;;;;;;5.40;4.90;;;;;;;16.65;100.00;101529.31;4960676;28;20462;-79
2022/06/23 06:37:30;;;;;;;6.50;5.13;;;;;;;16.36;100.00;101463.94;4962606;28;20433;-80
2022/06/23 06:40:00;;;;;;;5.27;4.40;;;;;;;16.72;100.00;101513.81;4957840;28;20477;-80
2022/06/23 06:42:29;;;;;;;4.90;4.40;;;;;;;16.80;100.00;101507.31;4959374;28;20537;-80
2022/06/23 06:44:57;;;;;;;4.53;4.23;;;;;;;16.86;100.00;101499.09;4956085;28;20548;-82
2022/06/23 06:47:26;;;;;;;5.60;4.07;;;;;;;16.73;100.00;101477.56;4960022;28;20426;-84
2022/06/23 06:49:59;;;;;;;4.80;4.27;;;;;;;16.82;100.00;101489.78;4961025;28;20470;-82
2022/06/23 06:52:26;;;;;;;5.00;4.43;;;;;;;17.07;100.00;101506.00;4961812;28;20493;-85
2022/06/23 06:54:57;;;;;;;4.90;4.27;;;;;;;16.99;100.00;101484.59;4961915;28;20537;-86
2022/06/23 06:57:28;;;;;;;4.97;4.47;;;;;;;16.67;100.00;101429.69;4965400;28;20966;-85
2022/06/23 07:00:05;;;;;;;5.10;4.43;;;;;;;17.17;100.00;101494.59;4960907;28;20560;-85
2022/06/23 07:02:34;;;;;;;5.53;4.90;;;;;;;17.28;100.00;101491.13;4961597;28;20425;-85
2022/06/23 07:05:26;;;;;;;4.87;4.37;;;;;;;17.34;100.00;101492.94;4976015;28;20461;-85
2022/06/23 07:08:18;;;;;;;5.23;3.67;;;;;;;17.30;100.00;101461.06;4962452;28;20418;-87
2022/06/23 07:11:24;;;;;;;4.63;4.23;;;;;;;17.53;100.00;101487.47;4959950;28;20521;-86
2022/06/23 07:14:14;;;;;;;6.47;3.93;;;;;;;17.60;100.00;101485.50;4948228;28;20528;-87
2022/06/23 07:17:14;;;;;;;7.20;3.67;;;;;;;17.63;100.00;101485.06;4964563;28;20447;-87
2022/06/23 07:19:50;;;;;;;4.70;4.10;;;;;;;17.71;100.00;101479.31;4961363;28;20423;-88
2022/06/23 07:22:28;;;;;;;4.50;4.10;;;;;;;17.54;100.00;101437.63;4966255;28;20425;-88
2022/06/23 07:25:08;;;;;;;4.97;3.93;;;;;;;17.82;100.00;101478.56;4961765;28;20491;-85
2022/06/23 07:27:51;;;;;;;3.63;3.20;;;;;;;17.65;100.00;101428.69;4960727;28;20931;-84
2022/06/23 07:30:35;;;;;;;3.50;3.20;;;;;;;17.93;100.00;101476.91;4954965;28;20498;-87
2022/06/23 07:33:05;;;;;;;4.27;3.60;;;;;;;17.98;100.00;101473.50;4966592;28;20483;-88
2022/06/23 07:36:05;;;;;;;3.53;3.23;;;;;;;18.10;100.00;101471.63;4966838;28;20467;-88
2022/06/23 07:38:50;;;;;;;4.30;3.90;;;;;;;18.21;100.00;101473.56;4957920;28;20799;-84
2022/06/23 07:41:22;;;;;;;4.13;3.73;;;;;;;18.19;100.00;101470.22;4961862;28;20449;-83
2022/06/23 07:43:51;;;;;;;5.27;3.03;;;;;;;18.25;100.00;101477.47;4960657;28;20433;-84
2022/06/23 07:46:17;;;;;;;3.97;3.30;;;;;;;18.31;100.00;101472.97;4963358;28;20476;-84
2022/06/23 07:48:43;;;;;;;4.40;3.20;;;;;;;17.83;100.00;101379.78;4962840;28;20998;-83
2022/06/23 07:51:10;;;;;;;4.30;3.90;;;;;;;17.87;100.00;101361.16;4962813;28;20198;-84
2022/06/23 07:53:42;;;;;;;3.77;3.40;;;;;;;18.33;100.00;101429.28;4962256;28;20865;-83
2022/06/23 07:56:15;;;;;;;4.20;3.80;;;;;;;18.54;100.00;101461.28;4961018;28;20921;-85
2022/06/23 07:58:44;;;;;;;3.80;3.10;;;;;;;18.06;100.00;101357.28;4961788;28;20504;-84
2022/06/23 08:01:17;;;;;;;3.90;3.23;;;;;;;18.39;100.00;101377.56;4963227;28;20422;-85
2022/06/23 08:04:03;;;;;;;4.60;3.10;;;;;;;18.66;100.00;101437.66;4962783;28;20421;-85
2022/06/23 08:06:30;;;;;;;3.10;2.67;;;;;;;18.76;100.00;101445.25;4963846;28;20476;-84
2022/06/23 08:09:00;;;;;;;4.30;3.10;;;;;;;18.80;100.00;101432.81;4961102;28;20470;-85
2022/06/23 08:14:33;;;;;;;4.83;3.23;;;;;;;19.09;100.00;101436.44;4964608;28;20548;-85
2022/06/23 08:17:03;;;;;;;3.73;3.20;;;;;;;19.03;100.00;101440.09;4961632;28;20532;-85
2022/06/23 08:19:35;;;;;;;4.30;3.17;;;;;;;19.11;100.00;101447.06;4961708;28;20422;-85
2022/06/23 08:22:19;;;;;;;5.00;2.90;;;;;;;18.71;100.00;101363.56;4963260;28;20574;-85
2022/06/23 08:24:48;;;;;;;2.67;2.40;;;;;;;18.70;100.00;101340.19;4958541;28;20457;-86
2022/06/23 08:27:18;;;;;;;3.00;2.70;;;;;;;18.98;100.00;101396.50;4963505;28;20516;-84
2022/06/23 08:30:13;;;;;;;3.90;2.90;;;;;;;19.36;100.00;101422.25;4962252;28;20974;-84
2022/06/23 08:32:41;;;;;;;3.50;2.90;;;;;;;19.11;100.00;101362.75;4963862;28;20445;-84
2022/06/23 08:35:18;;;;;;;3.13;2.67;;;;;;;19.59;100.00;101435.75;4963457;28;20465;-85
2022/06/23 08:37:51;;;;;;;3.50;2.23;;;;;;;19.66;100.00;101424.75;4968198;28;20434;-84
2022/06/23 08:40:31;;;;;;;5.77;2.53;;;;;;;19.75;100.00;101420.53;4963377;28;20426;-84
2022/06/23 08:43:11;;;;;;;2.73;2.33;;;;;;;19.77;100.00;101423.84;4968474;28;20437;-84
2022/06/23 08:46:06;;;;;;;3.57;2.20;;;;;;;19.74;100.00;101418.91;4968799;28;20503;-84
2022/06/23 08:48:36;;;;;;;2.50;2.30;;;;;;;19.85;100.00;101406.28;4968862;28;20430;-84
2022/06/23 08:51:17;;;;;;;2.73;2.43;;;;;;;19.37;100.00;101312.38;4970320;28;20985;-85
2022/06/23 08:53:54;;;;;;;6.60;2.80;;;;;;;19.95;100.00;101411.06;4968921;28;20471;-83
2022/06/23 08:56:26;;;;;;;2.57;2.20;;;;;;;19.51;100.00;101330.03;4964585;28;21045;-82
2022/06/23 08:59:20;;;;;;;4.90;2.40;;;;;;;20.16;100.00;101395.88;4963632;28;20413;-82
2022/06/23 09:02:08;;;;;;;2.97;2.03;;;;;;;19.80;100.00;101327.28;4985879;28;20435;-81
2022/06/23 09:04:40;;;;;;;2.43;2.23;;;;;;;20.39;100.00;101395.66;4964522;28;20446;-78
2022/06/23 09:07:17;;;;;;;2.23;1.90;;;;;;;19.85;100.00;101297.41;4964581;28;20517;-81
2022/06/23 09:09:51;;;;;;;3.23;2.20;;;;;;;19.80;100.00;101300.06;4965964;28;20471;-78
2022/06/23 09:12:41;;;;;;;2.57;1.87;;;;;;;20.62;100.00;101378.31;4964410;28;20514;-85
2022/06/23 09:15:35;;;;;;;1.87;1.60;;;;;;;20.05;100.00;101305.88;4961746;28;20449;-78
2022/06/23 09:18:09;;;;;;;3.20;2.20;;;;;;;20.71;100.00;101367.78;4964719;28;20430;-83
2022/06/23 09:20:53;;;;;;;2.20;2.00;;;;;;;20.80;100.00;101354.53;4976493;28;20465;-85
2022/06/23 09:23:55;;;;;;;2.47;2.00;;;;;;;20.90;100.00;101351.94;4967860;28;20438;-85
2022/06/23 09:26:31;;;;;;;2.50;2.00;;;;;;;20.76;100.00;101352.31;4962832;28;20949;-84
2022/06/23 09:29:08;;;;;;;2.57;2.33;;;;;;;20.79;100.00;101352.91;4951486;28;20487;-83
2022/06/23 09:31:58;;;;;;;3.70;2.10;;;;;;;21.04;100.00;101352.38;4965496;28;20922;-84
2022/06/23 09:34:53;;;;;;;4.13;2.20;;;;;;;20.48;100.00;101260.66;4978551;28;20437;-83
2022/06/23 09:37:24;;;;;;;4.83;2.00;;;;;;;20.88;100.00;101354.09;4966118;28;20472;-84
2022/06/23 09:40:26;;;;;;;3.40;2.00;;;;;;;21.00;100.00;101335.69;4964301;28;20508;-84
2022/06/23 09:42:54;;;;;;;2.33;2.13;;;;;;;21.16;100.00;101339.41;4957857;28;20953;-86
2022/06/23 09:45:41;;;;;;;3.07;2.00;;;;;;;21.24;100.00;101343.56;4962483;28;20451;-86
2022/06/23 09:49:02;;;;;;;1.90;1.60;;;;;;;21.33;100.00;101350.22;4965297;28;20419;-85
2022/06/23 09:51:46;;;;;;;2.07;1.80;;;;;;;21.31;100.00;101345.00;4942018;28;20536;-85
2022/06/23 09:54:39;;;;;;;2.00;1.80;;;;;;;21.49;100.00;101334.81;4934118;28;20510;-86
2022/06/23 09:57:31;;;;;;;2.40;2.10;;;;;;;21.81;100.00;101338.38;4958466;28;20431;-86
2022/06/23 10:00:04;;;;;;;4.30;2.13;;;;;;;21.33;100.00;101282.81;4965497;28;20570;-86
2022/06/23 10:02:54;;;;;;;2.10;1.80;;;;;;;21.78;100.00;101347.06;4967220;28;20427;-86
2022/06/23 10:05:52;;;;;;;4.00;2.43;;;;;;;21.73;100.00;101340.78;4962986;28;20470;-86
2022/06/23 10:09:13;;;;;;;3.00;2.20;;;;;;;21.81;100.00;101341.09;4961144;28;20437;-87
2022/06/23 10:11:54;;;;;;;3.20;2.00;;;;;;;22.04;100.00;101331.72;4982764;28;20573;-85
2022/06/23 10:14:46;;;;;;;1.70;1.60;;;;;;;21.96;100.00;101326.72;4968163;28;20442;-85
2022/06/23 10:17:11;;;;;;;2.23;1.93;;;;;;;22.11;100.00;101331.47;4965338;28;20434;-87
2022/06/23 10:20:01;;;;;;;2.50;1.80;;;;;;;22.05;100.00;101333.34;4962776;28;20435;-86
2022/06/23 10:22:44;;;;;;;3.00;1.87;;;;;;;22.07;100.00;101338.53;4963379;28;20235;-86
2022/06/23 10:25:25;;;;;;;1.83;1.60;;;;;;;22.22;100.00;101319.53;4963350;28;20500;-84
2022/06/23 10:28:36;;;;;;;1.50;1.40;;;;;;;22.19;100.00;101331.00;4976700;28;20465;-84
2022/06/23 10:31:20;;;;;;;4.37;1.83;;;;;;;22.22;100.00;101322.28;4961415;28;20410;-82
2022/06/23 10:34:15;;;;;;;2.83;1.40;;;;;;;22.02;100.00;101254.66;4961984;28;20511;-83
2022/06/23 10:37:19;;;;;;;2.13;1.93;;;;;;;22.47;100.00;101323.47;5000322;22;20990;-74
2022/06/23 10:40:01;;;;;;;1.23;1.13;;;;;;;22.37;100.00;101316.06;5008687;28;20928;-74
2022/06/23 10:42:32;;;;;;;3.83;1.63;;;;;;;22.37;100.00;101320.72;5022377;28;20811;-74
2022/06/23 10:45:26;;;;;;;3.53;1.20;;;;;;;22.51;100.00;101308.19;5022487;28;20489;-75
2022/06/23 10:48:01;;;;;;;1.70;1.50;;;;;;;22.51;100.00;101303.56;5004228;28;20497;-75
2022/06/23 10:50:47;;;;;;;1.13;1.03;;;;;;;22.74;100.00;101294.06;5003401;28;20462;-75
2022/06/23 10:53:31;;;;;;;2.63;1.40;;;;;;;22.72;100.00;101300.88;5002871;28;20458;-75
2022/06/23 10:56:17;;;;;;;2.30;1.60;;;;;;;22.66;100.00;101294.59;5004797;28;20795;-75
2022/06/23 10:59:00;;;;;;;1.67;1.10;;;;;;;22.78;100.00;101291.59;5003206;28;20415;-75
2022/06/23 11:01:41;;;;;;;2.90;1.10;;;;;;;22.76;100.00;101291.84;5003897;28;20424;-75
2022/06/23 11:04:31;;;;;;;1.50;1.30;;;;;;;22.79;100.00;101288.59;5003141;28;20828;-75
2022/06/23 11:07:08;;;;;;;2.60;1.10;;;;;;;22.85;100.00;101294.06;5003218;28;20498;-75
2022/06/23 11:09:50;;;;;;;2.97;1.20;;;;;;;22.85;100.00;101281.22;5002335;28;20844;-74
2022/06/23 11:12:27;;;;;;;1.13;1.03;;;;;;;23.02;100.00;101291.94;5002913;28;20838;-75
2022/06/23 11:15:15;;;;;;;2.60;1.27;;;;;;;23.08;100.00;101265.44;5003489;28;20790;-74
2022/06/23 11:18:21;;;;;;;5.27;1.90;;;;;;;23.16;100.00;101292.25;4998855;28;20452;-75
2022/06/23 11:21:28;;;;;;;2.17;1.73;;;;;;;23.09;100.00;101280.75;4970788;28;20447;-75
2022/06/23 11:23:56;;;;;;;2.40;1.50;;;;;;;23.29;100.00;101280.78;5001956;28;20474;-75
2022/06/23 11:26:38;;;;;;;2.23;1.70;;;;;;;23.40;100.00;101274.22;5003429;28;20461;-75
2022/06/23 11:29:48;;;;;;;1.50;1.30;;;;;;;23.49;100.00;101271.75;5003044;28;20466;-75
2022/06/23 11:32:37;;;;;;;3.20;1.53;;;;;;;23.56;100.00;101268.72;4998383;28;21012;-75
2022/06/23 11:35:22;;;;;;;3.00;1.20;;;;;;;23.74;100.00;101270.91;5003723;28;20834;-75
2022/06/23 11:38:00;;;;;;;7.63;1.80;;;;;;;23.42;100.00;101257.50;5002177;28;20847;-75
2022/06/23 11:40:45;;;;;;;1.70;1.60;;;;;;;23.64;100.00;101262.69;5002863;28;20429;-75
2022/06/23 11:43:22;;;;;;;4.40;1.60;;;;;;;23.39;100.00;101195.09;5002562;28;20503;-75
2022/06/23 11:45:50;;;;;;;1.97;1.20;;;;;;;23.77;100.00;101262.13;5002538;28;20536;-74
2022/06/23 11:48:25;;;;;;;4.57;1.90;;;;;;;23.64;100.00;101259.94;5002511;28;20865;-75
2022/06/23 11:51:03;;;;;;;1.40;1.20;;;;;;;23.74;100.00;101237.22;5000817;28;20436;-75
2022/06/23 11:54:05;;;;;;;1.10;1.00;;;;;;;23.89;100.00;101246.22;5001895;28;20429;-75
2022/06/23 11:56:44;;;;;;;2.30;1.63;;;;;;;23.99;100.00;101242.63;5003262;28;20439;-75
2022/06/23 11:59:47;;;;;;;3.10;1.73;;;;;;;24.12;100.00;101247.50;5001459;28;20492;-75
2022/06/23 12:02:13;;;;;;;3.37;1.50;;;;;;;23.83;100.00;101236.38;5001332;28;20845;-75
2022/06/23 12:05:09;;;;;;;2.17;1.43;;;;;;;23.99;100.00;101231.69;5002652;28;20482;-75
2022/06/23 12:07:45;;;;;;;8.30;1.57;;;;;;;23.43;100.00;101149.63;5002068;28;20233;-75
2022/06/23 12:10:15;;;;;;;1.83;1.50;;;;;;;24.11;100.00;101234.91;5001637;28;20463;-75
2022/06/23 12:12:44;;;;;;;2.70;1.77;;;;;;;24.29;100.00;101230.72;5001644;28;20491;-75
2022/06/23 12:15:13;;;;;;;2.63;1.93;;;;;;;24.27;100.00;101237.59;5002725;28;20459;-75
2022/06/23 12:17:53;;;;;;;2.60;1.30;;;;;;;24.17;100.00;101207.50;5003319;28;20525;-75
2022/06/23 12:20:44;;;;;;;2.23;1.40;;;;;;;24.31;100.00;101220.31;5002515;28;20414;-75
2022/06/23 12:23:53;;;;;;;1.50;1.10;;;;;;;24.31;100.00;101224.97;5002507;28;20420;-75